Terminal Aerodrome Forecast
Issued by NWS Charleston, WV

Current Version | Previous Version | Text Only | Print | Product List | Glossary Off
Versions: 1 2 3 4 5 6 7 8 9 10 11 12 13 14 15 16

000
FTUS41 KRLX 242300
TAFEKN
TAF
KEKN 242334Z 2500/2524 19014G23KT P6SM BKN045
     FM250200 26017G40KT P6SM SHRA VCTS BKN040CB
     FM250400 26014G26KT P6SM SHRA OVC035
     FM250500 26011G30KT P6SM OVC020
     FM251000 27011G22KT P6SM OVC008
     FM251400 27011G18KT P6SM BKN015
     FM251600 27012G22KT P6SM BKN025
     FM252200 26007KT P6SM BKN035=

USA.gov is the U.S. government's official web portal to all federal, state and local government web resources and services.